createdAt,value
2023-03-26T00:00:16.684Z,997.22
2023-03-26T00:01:16.697Z,997.23
2023-03-26T00:02:16.768Z,997.20
2023-03-26T00:03:16.785Z,997.24
2023-03-26T00:04:16.668Z,997.32
2023-03-26T00:05:16.684Z,997.25
2023-03-26T00:06:16.660Z,997.26
2023-03-26T00:07:16.691Z,997.28
2023-03-26T00:08:16.656Z,997.34
2023-03-26T00:09:16.656Z,997.33
2023-03-26T00:10:16.634Z,997.33
2023-03-26T00:11:16.720Z,997.33
2023-03-26T00:12:16.669Z,997.29
2023-03-26T00:13:16.622Z,997.27
2023-03-26T00:14:16.606Z,997.28
2023-03-26T00:15:16.620Z,997.33
2023-03-26T00:16:16.604Z,997.28
2023-03-26T00:17:16.599Z,997.35
2023-03-26T00:18:16.581Z,997.29
2023-03-26T00:19:16.592Z,997.30
2023-03-26T00:20:16.614Z,997.32
2023-03-26T00:21:16.564Z,997.37
2023-03-26T00:22:16.556Z,997.37
2023-03-26T00:23:16.552Z,997.37
2023-03-26T00:24:16.546Z,997.37
2023-03-26T00:25:16.542Z,997.40
2023-03-26T00:26:16.544Z,997.40
2023-03-26T00:27:16.527Z,997.42
2023-03-26T00:28:16.526Z,997.44
2023-03-26T00:29:16.508Z,997.39
2023-03-26T00:30:16.527Z,997.42
2023-03-26T00:31:16.546Z,997.44
2023-03-26T00:32:16.491Z,997.44
2023-03-26T00:33:16.491Z,997.39
2023-03-26T00:34:16.494Z,997.39
2023-03-26T00:35:16.507Z,997.41
2023-03-26T00:36:16.548Z,997.39
2023-03-26T00:37:16.489Z,997.37
2023-03-26T00:38:16.477Z,997.37
2023-03-26T00:39:16.477Z,997.42
2023-03-26T00:40:16.449Z,997.39
2023-03-26T00:41:16.451Z,997.38
2023-03-26T00:42:16.453Z,997.37
2023-03-26T00:43:16.448Z,997.37
2023-03-26T00:44:16.442Z,997.39
2023-03-26T00:45:16.423Z,997.42
2023-03-26T00:46:16.457Z,997.37
2023-03-26T00:47:16.418Z,997.35
2023-03-26T00:48:16.408Z,997.40
2023-03-26T00:49:16.403Z,997.42
2023-03-26T00:50:16.433Z,997.44
2023-03-26T00:51:16.402Z,997.47
2023-03-26T00:52:16.397Z,997.49
2023-03-26T00:53:16.394Z,997.40
2023-03-26T00:54:16.410Z,997.42
2023-03-26T00:55:16.370Z,997.41
2023-03-26T00:56:16.370Z,997.43
2023-03-26T00:57:25.602Z,997.44
2023-03-26T00:58:16.348Z,997.43
2023-03-26T00:59:16.364Z,997.41
2023-03-26T01:00:16.345Z,997.45
2023-03-26T01:01:16.494Z,997.37
2023-03-26T01:02:16.377Z,997.39
2023-03-26T01:03:27.682Z,997.46
2023-03-26T01:04:16.503Z,997.48
2023-03-26T01:05:16.349Z,997.51
2023-03-26T01:06:16.315Z,997.46
2023-03-26T01:07:16.310Z,997.50
2023-03-26T01:08:16.311Z,997.49
2023-03-26T01:09:16.329Z,997.50
2023-03-26T01:10:16.277Z,997.52
2023-03-26T01:11:16.292Z,997.51
2023-03-26T01:12:16.271Z,997.55
2023-03-26T01:13:16.292Z,997.53
2023-03-26T01:14:16.263Z,997.58
2023-03-26T01:15:16.284Z,997.58
2023-03-26T01:16:16.250Z,997.66
2023-03-26T01:17:16.274Z,997.59
2023-03-26T01:18:16.234Z,997.62
2023-03-26T01:19:16.245Z,997.63
2023-03-26T01:20:16.252Z,997.68
2023-03-26T01:21:16.223Z,997.65
2023-03-26T01:22:16.216Z,997.65
2023-03-26T01:23:16.238Z,997.65
2023-03-26T01:24:16.248Z,997.67
2023-03-26T01:25:16.193Z,997.72
2023-03-26T01:26:16.193Z,997.69
2023-03-26T01:27:16.187Z,997.66
2023-03-26T01:28:16.177Z,997.74
2023-03-26T01:29:16.167Z,997.76
2023-03-26T01:30:16.171Z,997.78
2023-03-26T01:31:16.187Z,997.74
2023-03-26T01:32:16.198Z,997.75
2023-03-26T01:33:16.372Z,997.72
2023-03-26T01:34:16.154Z,997.65
2023-03-26T01:35:16.152Z,997.55
2023-03-26T01:36:16.130Z,997.55
2023-03-26T01:37:16.138Z,997.56
2023-03-26T01:38:16.128Z,997.49
2023-03-26T01:39:16.122Z,997.58
2023-03-26T01:40:16.128Z,997.59
2023-03-26T01:41:16.138Z,997.66
2023-03-26T01:42:16.090Z,997.70
2023-03-26T01:43:16.114Z,997.69
2023-03-26T01:44:16.079Z,997.70
2023-03-26T01:45:16.100Z,997.71
2023-03-26T01:46:16.093Z,997.75
2023-03-26T01:47:16.206Z,997.70
2023-03-26T01:48:16.090Z,997.77
2023-03-26T01:49:16.101Z,997.76
2023-03-26T01:50:16.051Z,997.70
2023-03-26T01:51:16.039Z,997.66
2023-03-26T01:52:16.037Z,997.69
2023-03-26T01:53:16.039Z,997.66
2023-03-26T01:54:16.023Z,997.72
2023-03-26T01:55:16.042Z,997.68
2023-03-26T01:56:16.021Z,997.75
2023-03-26T01:57:16.069Z,997.70
2023-03-26T01:58:16.000Z,997.69
2023-03-26T01:59:15.992Z,997.68
2023-03-26T02:00:16.008Z,997.70
2023-03-26T02:01:16.033Z,997.69
2023-03-26T02:02:16.048Z,997.57
2023-03-26T02:03:16.124Z,997.63
2023-03-26T02:04:15.968Z,997.73
2023-03-26T02:05:15.962Z,997.68
2023-03-26T02:06:15.998Z,997.67
2023-03-26T02:07:15.961Z,997.60
2023-03-26T02:08:15.948Z,997.62
2023-03-26T02:09:15.941Z,997.66
2023-03-26T02:10:15.935Z,997.61
2023-03-26T02:11:16.648Z,997.58
2023-03-26T02:12:15.931Z,997.59
2023-03-26T02:13:15.923Z,997.56
2023-03-26T02:14:15.924Z,997.57
2023-03-26T02:15:15.904Z,997.56
2023-03-26T02:16:15.930Z,997.62
2023-03-26T02:17:15.894Z,997.57
2023-03-26T02:18:15.885Z,997.59
2023-03-26T02:19:16.220Z,997.61
2023-03-26T02:20:15.874Z,997.62
2023-03-26T02:21:15.867Z,997.65
2023-03-26T02:22:16.086Z,997.70
2023-03-26T02:23:15.865Z,997.64
2023-03-26T02:24:15.844Z,997.66
2023-03-26T02:25:15.840Z,997.68
2023-03-26T02:26:15.848Z,997.65
2023-03-26T02:27:15.825Z,997.73
2023-03-26T02:28:15.816Z,997.69
2023-03-26T02:29:15.821Z,997.69
2023-03-26T02:30:15.802Z,997.70
2023-03-26T02:31:15.823Z,997.70
2023-03-26T02:32:15.798Z,997.72
2023-03-26T02:33:15.807Z,997.67
2023-03-26T02:34:15.788Z,997.66
2023-03-26T02:35:15.896Z,997.62
2023-03-26T02:36:15.814Z,997.59
2023-03-26T02:37:15.800Z,997.69
2023-03-26T02:38:15.766Z,997.69
2023-03-26T02:39:15.760Z,997.68
2023-03-26T02:40:15.767Z,997.72
2023-03-26T02:41:15.781Z,997.74
2023-03-26T02:42:15.764Z,997.75
2023-03-26T02:43:15.756Z,997.77
2023-03-26T02:44:15.733Z,997.75
2023-03-26T02:45:15.724Z,997.73
2023-03-26T02:46:15.815Z,997.78
2023-03-26T02:47:15.708Z,997.69
2023-03-26T02:48:15.755Z,997.74
2023-03-26T02:49:15.709Z,997.75
2023-03-26T02:50:15.701Z,997.82
2023-03-26T02:51:15.706Z,997.74
2023-03-26T02:52:15.724Z,997.79
2023-03-26T02:53:15.694Z,997.82
2023-03-26T02:54:15.662Z,997.82
2023-03-26T02:55:15.663Z,997.77
2023-03-26T02:56:15.662Z,997.83
2023-03-26T02:57:15.688Z,997.84
2023-03-26T02:58:15.655Z,997.81
2023-03-26T02:59:15.646Z,997.82
2023-03-26T03:00:15.658Z,997.85
2023-03-26T03:01:15.674Z,997.86
2023-03-26T03:02:15.671Z,997.79
2023-03-26T03:03:15.666Z,997.86
2023-03-26T03:04:15.606Z,997.87
2023-03-26T03:05:15.597Z,997.87
2023-03-26T03:06:15.614Z,997.89
2023-03-26T03:07:15.608Z,997.92
2023-03-26T03:08:15.577Z,997.96
2023-03-26T03:09:15.582Z,997.90
2023-03-26T03:10:15.654Z,997.94
2023-03-26T03:11:15.561Z,997.89
2023-03-26T03:12:15.557Z,997.96
2023-03-26T03:13:15.574Z,997.95
2023-03-26T03:14:15.543Z,997.95
2023-03-26T03:15:15.574Z,997.90
2023-03-26T03:16:15.569Z,997.98
2023-03-26T03:17:15.533Z,997.96
2023-03-26T03:18:15.539Z,997.97
2023-03-26T03:19:15.525Z,997.94
2023-03-26T03:20:15.519Z,997.97
2023-03-26T03:21:15.511Z,997.94
2023-03-26T03:22:15.493Z,997.94
2023-03-26T03:23:15.494Z,997.97
2023-03-26T03:24:15.480Z,997.96
2023-03-26T03:25:15.490Z,997.95
2023-03-26T03:26:15.488Z,997.94
2023-03-26T03:27:15.465Z,997.93
2023-03-26T03:28:15.477Z,997.96
2023-03-26T03:29:15.462Z,997.92
2023-03-26T03:30:15.454Z,997.92
2023-03-26T03:31:15.488Z,997.92
2023-03-26T03:32:15.438Z,997.91
2023-03-26T03:33:15.448Z,997.90
2023-03-26T03:34:15.452Z,997.90
2023-03-26T03:35:15.446Z,997.93
2023-03-26T03:36:19.943Z,997.94
2023-03-26T03:37:15.424Z,997.90
2023-03-26T03:38:15.410Z,997.94
2023-03-26T03:39:15.430Z,997.93
2023-03-26T03:40:15.386Z,997.97
2023-03-26T03:41:15.380Z,997.97
2023-03-26T03:42:15.376Z,997.91
2023-03-26T03:43:15.397Z,998.00
2023-03-26T03:44:15.383Z,998.01
2023-03-26T03:45:15.379Z,997.99
2023-03-26T03:46:15.414Z,997.94
2023-03-26T03:47:15.362Z,998.02
2023-03-26T03:48:15.346Z,997.98
2023-03-26T03:49:15.347Z,997.99
2023-03-26T03:50:15.341Z,997.99
2023-03-26T03:51:15.330Z,998.05
2023-03-26T03:52:15.351Z,998.03
2023-03-26T03:53:15.307Z,998.00
2023-03-26T03:54:15.304Z,998.06
2023-03-26T03:55:15.312Z,998.07
2023-03-26T03:56:15.305Z,998.01
2023-03-26T03:57:15.300Z,998.03
2023-03-26T03:58:15.276Z,998.01
2023-03-26T03:59:15.277Z,997.99
2023-03-26T04:00:15.276Z,998.03
2023-03-26T04:01:15.345Z,998.05
2023-03-26T04:02:15.308Z,998.07
2023-03-26T04:03:15.285Z,998.07
2023-03-26T04:04:15.355Z,998.09
2023-03-26T04:05:15.244Z,998.05
2023-03-26T04:06:15.243Z,998.10
2023-03-26T04:07:15.235Z,998.09
2023-03-26T04:08:15.216Z,998.15
2023-03-26T04:09:15.220Z,998.17
2023-03-26T04:10:15.226Z,998.19
2023-03-26T04:11:15.219Z,998.17
2023-03-26T04:12:15.200Z,998.15
2023-03-26T04:13:15.197Z,998.21
2023-03-26T04:14:15.183Z,998.20
2023-03-26T04:15:15.178Z,998.21
2023-03-26T04:16:15.207Z,998.20
2023-03-26T04:17:15.171Z,998.18
2023-03-26T04:18:15.188Z,998.18
2023-03-26T04:19:15.164Z,998.23
2023-03-26T04:20:15.159Z,998.21
2023-03-26T04:21:15.152Z,998.22
2023-03-26T04:22:15.131Z,998.28
2023-03-26T04:23:15.133Z,998.23
2023-03-26T04:24:15.134Z,998.25
2023-03-26T04:25:15.132Z,998.23
2023-03-26T04:26:15.133Z,998.26
2023-03-26T04:27:15.114Z,998.20
2023-03-26T04:28:15.105Z,998.22
2023-03-26T04:29:15.091Z,998.21
2023-03-26T04:30:15.085Z,998.21
2023-03-26T04:31:15.115Z,998.17
2023-03-26T04:32:15.080Z,998.26
2023-03-26T04:33:15.069Z,998.19
2023-03-26T04:34:15.071Z,998.17
2023-03-26T04:35:15.084Z,998.19
2023-03-26T04:36:15.060Z,998.18
2023-03-26T04:37:15.045Z,998.14
2023-03-26T04:38:15.037Z,998.16
2023-03-26T04:39:15.046Z,998.16
2023-03-26T04:40:15.035Z,998.16
2023-03-26T04:41:15.033Z,998.19
2023-03-26T04:42:15.019Z,998.13
2023-03-26T04:43:15.026Z,998.18
2023-03-26T04:44:15.013Z,998.16
2023-03-26T04:45:15.012Z,998.18
2023-03-26T04:46:15.031Z,998.20
2023-03-26T04:47:14.982Z,998.17
2023-03-26T04:48:14.984Z,998.19
2023-03-26T04:49:14.982Z,998.17
2023-03-26T04:50:15.056Z,998.19
2023-03-26T04:51:14.955Z,998.20
2023-03-26T04:52:14.971Z,998.19
2023-03-26T04:53:14.959Z,998.19
2023-03-26T04:54:14.959Z,998.20
2023-03-26T04:55:14.940Z,998.18
2023-03-26T04:56:14.946Z,998.17
2023-03-26T04:57:14.955Z,998.16
2023-03-26T04:58:14.943Z,998.15
2023-03-26T04:59:14.927Z,998.22
2023-03-26T05:00:14.953Z,998.17
2023-03-26T05:01:14.949Z,998.20
2023-03-26T05:02:14.902Z,998.20
2023-03-26T05:03:14.897Z,998.17
2023-03-26T05:04:14.966Z,998.19
2023-03-26T05:05:14.880Z,998.23
2023-03-26T05:06:14.886Z,998.23
2023-03-26T05:07:14.860Z,998.20
2023-03-26T05:08:14.866Z,998.20
2023-03-26T05:09:14.851Z,998.24
2023-03-26T05:10:14.845Z,998.21
2023-03-26T05:11:14.838Z,998.20
2023-03-26T05:12:14.845Z,998.21
2023-03-26T05:13:14.828Z,998.21
2023-03-26T05:14:14.839Z,998.18
2023-03-26T05:15:14.820Z,998.15
2023-03-26T05:16:14.876Z,998.17
2023-03-26T05:17:14.893Z,998.20
2023-03-26T05:18:14.800Z,998.20
2023-03-26T05:19:14.790Z,998.17
2023-03-26T05:20:14.791Z,998.19
2023-03-26T05:21:14.775Z,998.19
2023-03-26T05:22:14.780Z,998.20
2023-03-26T05:23:14.772Z,998.20
2023-03-26T05:24:14.762Z,998.20
2023-03-26T05:25:14.761Z,998.27
2023-03-26T05:26:14.751Z,998.18
2023-03-26T05:27:14.774Z,998.20
2023-03-26T05:28:14.756Z,998.24
2023-03-26T05:29:14.838Z,998.22
2023-03-26T05:30:14.750Z,998.24
2023-03-26T05:31:14.733Z,998.23
2023-03-26T05:32:14.719Z,998.24
2023-03-26T05:33:14.788Z,998.23
2023-03-26T05:34:14.698Z,998.22
2023-03-26T05:35:14.694Z,998.23
2023-03-26T05:36:14.693Z,998.24
2023-03-26T05:37:14.685Z,998.27
2023-03-26T05:38:14.682Z,998.24
2023-03-26T05:39:14.674Z,998.24
2023-03-26T05:40:14.683Z,998.30
2023-03-26T05:41:14.692Z,998.27
2023-03-26T05:42:14.658Z,998.28
2023-03-26T05:43:14.655Z,998.30
2023-03-26T05:44:14.666Z,998.28
2023-03-26T05:45:14.635Z,998.27
2023-03-26T05:46:14.680Z,998.31
2023-03-26T05:47:14.633Z,998.21
2023-03-26T05:48:14.631Z,998.28
2023-03-26T05:49:14.617Z,998.31
2023-03-26T05:50:14.621Z,998.32
2023-03-26T05:51:14.615Z,998.33
2023-03-26T05:52:14.606Z,998.35
2023-03-26T05:53:14.587Z,998.29
2023-03-26T05:54:14.586Z,998.32
2023-03-26T05:55:14.591Z,998.29
2023-03-26T05:56:14.605Z,998.33
2023-03-26T05:57:14.684Z,998.34
2023-03-26T05:58:14.569Z,998.34
2023-03-26T05:59:14.557Z,998.31
2023-03-26T06:00:14.562Z,998.30
2023-03-26T06:01:14.589Z,998.33
2023-03-26T06:02:14.537Z,998.25
2023-03-26T06:03:14.731Z,998.29
2023-03-26T06:04:14.692Z,998.28
2023-03-26T06:05:14.532Z,998.33
2023-03-26T06:06:14.523Z,998.31
2023-03-26T06:07:14.514Z,998.34
2023-03-26T06:08:14.590Z,998.31
2023-03-26T06:09:14.507Z,998.33
2023-03-26T06:10:18.168Z,998.34
2023-03-26T06:11:14.502Z,998.31
2023-03-26T06:12:14.509Z,998.36
2023-03-26T06:13:14.473Z,998.31
2023-03-26T06:14:14.480Z,998.33
2023-03-26T06:15:14.467Z,998.30
2023-03-26T06:16:27.344Z,998.34
2023-03-26T06:17:14.450Z,998.38
2023-03-26T06:18:14.475Z,998.39
2023-03-26T06:19:14.488Z,998.35
2023-03-26T06:20:14.457Z,998.33
2023-03-26T06:21:14.432Z,998.36
2023-03-26T06:22:14.418Z,998.30
2023-03-26T06:23:14.415Z,998.40
2023-03-26T06:24:14.420Z,998.36
2023-03-26T06:25:14.423Z,998.37
2023-03-26T06:26:14.403Z,998.36
2023-03-26T06:27:14.398Z,998.38
2023-03-26T06:28:14.403Z,998.39
2023-03-26T06:29:14.393Z,998.34
2023-03-26T06:30:14.412Z,998.36
2023-03-26T06:31:14.473Z,998.41
2023-03-26T06:32:19.543Z,998.41
2023-03-26T06:33:14.362Z,998.41
2023-03-26T06:34:14.385Z,998.41
2023-03-26T06:35:14.384Z,998.48
2023-03-26T06:36:14.415Z,998.41
2023-03-26T06:37:14.352Z,998.48
2023-03-26T06:38:14.349Z,998.49
2023-03-26T06:39:14.344Z,998.49
2023-03-26T06:40:15.505Z,998.51
2023-03-26T06:41:14.322Z,998.50
2023-03-26T06:42:14.316Z,998.49
2023-03-26T06:43:14.327Z,998.52
2023-03-26T06:44:14.327Z,998.56
2023-03-26T06:45:14.300Z,998.55
2023-03-26T06:46:14.358Z,998.55
2023-03-26T06:47:14.282Z,998.54
2023-03-26T06:48:14.286Z,998.52
2023-03-26T06:49:14.276Z,998.61
2023-03-26T06:50:14.310Z,998.55
2023-03-26T06:51:14.276Z,998.57
2023-03-26T06:52:14.255Z,998.54
2023-03-26T06:53:14.267Z,998.51
2023-03-26T06:54:14.259Z,998.53
2023-03-26T06:55:14.277Z,998.55
2023-03-26T06:56:14.259Z,998.54
2023-03-26T06:57:14.248Z,998.53
2023-03-26T06:58:14.293Z,998.61
2023-03-26T06:59:14.226Z,998.58
2023-03-26T07:00:14.231Z,998.61
2023-03-26T07:01:14.241Z,998.56
2023-03-26T07:02:14.215Z,998.56
2023-03-26T07:03:14.216Z,998.56
2023-03-26T07:04:14.252Z,998.60
2023-03-26T07:05:14.228Z,998.60
2023-03-26T07:06:14.196Z,998.60
2023-03-26T07:07:14.186Z,998.62
2023-03-26T07:08:14.171Z,998.62
2023-03-26T07:09:14.175Z,998.59
2023-03-26T07:10:14.218Z,998.57
2023-03-26T07:11:14.175Z,998.59
2023-03-26T07:12:14.164Z,998.59
2023-03-26T07:13:14.156Z,998.57
2023-03-26T07:14:14.152Z,998.58
2023-03-26T07:15:14.139Z,998.56
2023-03-26T07:16:14.154Z,998.56
2023-03-26T07:17:14.139Z,998.56
2023-03-26T07:18:14.150Z,998.51
2023-03-26T07:19:14.129Z,998.55
2023-03-26T07:20:14.121Z,998.51
2023-03-26T07:21:14.121Z,998.56
2023-03-26T07:22:14.148Z,998.52
2023-03-26T07:23:14.116Z,998.49
2023-03-26T07:24:14.107Z,998.50
2023-03-26T07:25:14.138Z,998.46
2023-03-26T07:26:14.095Z,998.55
2023-03-26T07:27:14.093Z,998.49
2023-03-26T07:28:14.122Z,998.52
2023-03-26T07:29:14.104Z,998.48
2023-03-26T07:30:14.104Z,998.50
2023-03-26T07:31:14.115Z,998.51
2023-03-26T07:32:14.076Z,998.53
2023-03-26T07:33:14.075Z,998.50
2023-03-26T07:34:14.062Z,998.47
2023-03-26T07:35:14.062Z,998.53
2023-03-26T07:36:14.060Z,998.55
2023-03-26T07:37:14.054Z,998.54
2023-03-26T07:38:14.044Z,998.57
2023-03-26T07:39:14.058Z,998.51
2023-03-26T07:40:14.044Z,998.56
2023-03-26T07:41:14.065Z,998.53
2023-03-26T07:42:14.035Z,998.57
2023-03-26T07:43:14.022Z,998.54
2023-03-26T07:44:14.041Z,998.53
2023-03-26T07:45:14.020Z,998.60
2023-03-26T07:46:14.036Z,998.59
2023-03-26T07:47:14.006Z,998.59
2023-03-26T07:48:13.998Z,998.53
2023-03-26T07:49:14.013Z,998.54
2023-03-26T07:50:13.998Z,998.63
2023-03-26T07:51:14.009Z,998.61
2023-03-26T07:52:13.980Z,998.52
2023-03-26T07:53:13.979Z,998.58
2023-03-26T07:54:14.013Z,998.57
2023-03-26T07:55:13.995Z,998.58
2023-03-26T07:56:13.989Z,998.57
2023-03-26T07:57:14.070Z,998.64
2023-03-26T07:58:13.988Z,998.63
2023-03-26T07:59:13.970Z,998.60
2023-03-26T08:00:13.974Z,998.61
2023-03-26T08:01:13.958Z,998.62
2023-03-26T08:02:13.932Z,998.64
2023-03-26T08:03:14.132Z,998.56
2023-03-26T08:04:23.920Z,998.56
2023-03-26T08:05:14.015Z,998.56
2023-03-26T08:06:13.932Z,998.55
2023-03-26T08:07:13.932Z,998.57
2023-03-26T08:08:13.921Z,998.57
2023-03-26T08:09:13.914Z,998.57
2023-03-26T08:10:13.900Z,998.59
2023-03-26T08:11:13.889Z,998.57
2023-03-26T08:12:13.876Z,998.52
2023-03-26T08:13:13.890Z,998.50
2023-03-26T08:14:13.868Z,998.49
2023-03-26T08:15:13.874Z,998.52
2023-03-26T08:16:13.923Z,998.48
2023-03-26T08:17:13.861Z,998.56
2023-03-26T08:18:13.860Z,998.52
2023-03-26T08:19:13.861Z,998.53
2023-03-26T08:20:13.846Z,998.50
2023-03-26T08:21:13.846Z,998.56
2023-03-26T08:22:13.890Z,998.58
2023-03-26T08:23:13.949Z,998.57
2023-03-26T08:24:13.829Z,998.51
2023-03-26T08:25:13.840Z,998.52
2023-03-26T08:26:13.825Z,998.43
2023-03-26T08:27:13.846Z,998.48
2023-03-26T08:28:13.804Z,998.45
2023-03-26T08:29:13.810Z,998.45
2023-03-26T08:30:13.790Z,998.48
2023-03-26T08:31:13.871Z,998.48
2023-03-26T08:32:13.799Z,998.52
2023-03-26T08:33:13.795Z,998.47
2023-03-26T08:34:13.771Z,998.51
2023-03-26T08:35:13.801Z,998.51
2023-03-26T08:36:13.769Z,998.51
2023-03-26T08:37:13.760Z,998.46
2023-03-26T08:38:13.798Z,998.47
2023-03-26T08:39:13.748Z,998.46
2023-03-26T08:40:13.755Z,998.47
2023-03-26T08:41:13.752Z,998.47
2023-03-26T08:42:13.744Z,998.40
2023-03-26T08:43:13.735Z,998.44
2023-03-26T08:44:13.738Z,998.42
2023-03-26T08:45:13.737Z,998.46
2023-03-26T08:46:13.740Z,998.42
2023-03-26T08:47:13.772Z,998.45
2023-03-26T08:48:13.733Z,998.42
2023-03-26T08:49:13.711Z,998.38
2023-03-26T08:50:13.709Z,998.34
2023-03-26T08:51:13.693Z,998.35
2023-03-26T08:52:13.684Z,998.39
2023-03-26T08:53:13.696Z,998.35
2023-03-26T08:54:13.683Z,998.28
2023-03-26T08:55:13.711Z,998.36
2023-03-26T08:56:13.811Z,998.30
2023-03-26T08:57:13.772Z,998.32
2023-03-26T08:58:13.700Z,998.31
2023-03-26T08:59:13.722Z,998.31
2023-03-26T09:00:13.704Z,998.30
2023-03-26T09:01:13.639Z,998.34
2023-03-26T09:02:13.646Z,998.28
2023-03-26T09:03:13.647Z,998.32
2023-03-26T09:04:13.732Z,998.24
2023-03-26T09:05:13.626Z,998.25
2023-03-26T09:06:13.621Z,998.22
2023-03-26T09:07:13.659Z,998.24
2023-03-26T09:08:13.624Z,998.21
2023-03-26T09:09:19.024Z,998.18
2023-03-26T09:10:13.609Z,998.19
2023-03-26T09:11:13.597Z,998.22
2023-03-26T09:12:13.618Z,998.19
2023-03-26T09:13:13.597Z,998.13
2023-03-26T09:14:13.580Z,998.15
2023-03-26T09:15:13.605Z,998.14
2023-03-26T09:16:13.634Z,998.16
2023-03-26T09:17:13.581Z,998.14
2023-03-26T09:18:13.607Z,998.14
2023-03-26T09:19:13.564Z,998.05
2023-03-26T09:20:13.565Z,998.08
2023-03-26T09:21:13.568Z,998.07
2023-03-26T09:22:13.546Z,998.08
2023-03-26T09:23:14.990Z,998.12
2023-03-26T09:24:13.558Z,998.04
2023-03-26T09:25:13.569Z,998.06
2023-03-26T09:26:13.527Z,998.07
2023-03-26T09:27:13.529Z,998.05
2023-03-26T09:28:13.523Z,998.06
2023-03-26T09:29:13.526Z,998.02
2023-03-26T09:30:13.659Z,998.02
2023-03-26T09:31:13.548Z,998.16
2023-03-26T09:32:13.530Z,998.05
2023-03-26T09:33:13.504Z,998.09
2023-03-26T09:34:13.495Z,998.08
2023-03-26T09:35:13.836Z,998.03
2023-03-26T09:36:13.508Z,998.09
2023-03-26T09:37:13.487Z,998.00
2023-03-26T09:38:13.471Z,998.01
2023-03-26T09:39:13.516Z,998.05
2023-03-26T09:40:13.488Z,998.03
2023-03-26T09:41:13.483Z,998.00
2023-03-26T09:42:13.460Z,998.01
2023-03-26T09:43:13.483Z,998.02
2023-03-26T09:44:13.478Z,998.03
2023-03-26T09:45:13.455Z,998.12
2023-03-26T09:46:13.489Z,998.11
2023-03-26T09:47:13.447Z,998.08
2023-03-26T09:48:13.443Z,998.16
2023-03-26T09:49:13.436Z,998.10
2023-03-26T09:50:13.449Z,998.12
2023-03-26T09:51:13.415Z,998.10
2023-03-26T09:52:13.413Z,998.12
2023-03-26T09:53:13.419Z,998.11
2023-03-26T09:54:13.400Z,998.12
2023-03-26T09:55:13.412Z,998.15
2023-03-26T09:56:13.390Z,998.13
2023-03-26T09:57:13.425Z,998.14
2023-03-26T09:58:13.408Z,998.15
2023-03-26T09:59:13.378Z,998.19
2023-03-26T10:00:13.384Z,998.18
2023-03-26T10:01:13.423Z,998.23
2023-03-26T10:02:13.393Z,998.21
2023-03-26T10:03:13.500Z,998.18
2023-03-26T10:04:13.406Z,998.22
2023-03-26T10:05:13.375Z,998.17
2023-03-26T10:06:13.370Z,998.21
2023-03-26T10:07:13.354Z,998.28
2023-03-26T10:08:13.400Z,998.27
2023-03-26T10:09:13.344Z,998.25
2023-03-26T10:10:13.339Z,998.24
2023-03-26T10:11:13.344Z,998.23
2023-03-26T10:12:13.335Z,998.23
2023-03-26T10:13:15.025Z,998.25
2023-03-26T10:14:13.336Z,998.24
2023-03-26T10:15:13.321Z,998.21
2023-03-26T10:16:13.343Z,998.28
2023-03-26T10:17:13.373Z,998.26
2023-03-26T10:18:27.028Z,998.25
2023-03-26T10:19:13.307Z,998.23
2023-03-26T10:20:13.318Z,998.22
2023-03-26T10:21:13.290Z,998.22
2023-03-26T10:22:13.282Z,998.20
2023-03-26T10:23:13.285Z,998.19
2023-03-26T10:24:13.269Z,998.16
2023-03-26T10:25:13.282Z,998.24
2023-03-26T10:26:13.269Z,998.22
2023-03-26T10:27:13.269Z,998.20
2023-03-26T10:28:13.250Z,998.23
2023-03-26T10:29:13.250Z,998.19
2023-03-26T10:30:13.256Z,998.18
2023-03-26T10:31:13.326Z,998.14
2023-03-26T10:32:13.240Z,998.16
2023-03-26T10:33:13.245Z,998.18
2023-03-26T10:34:27.973Z,998.26
2023-03-26T10:35:13.227Z,998.24
2023-03-26T10:36:13.219Z,998.16
2023-03-26T10:37:13.225Z,998.23
2023-03-26T10:38:13.221Z,998.25
2023-03-26T10:39:35.938Z,998.22
2023-03-26T10:40:13.243Z,998.20
2023-03-26T10:41:13.199Z,998.25
2023-03-26T10:42:13.194Z,998.18
2023-03-26T10:43:13.188Z,998.10
2023-03-26T10:44:13.179Z,998.18
2023-03-26T10:45:13.203Z,998.16
2023-03-26T10:46:13.235Z,998.16
2023-03-26T10:47:13.181Z,998.13
2023-03-26T10:48:13.178Z,998.13
2023-03-26T10:49:13.186Z,998.06
2023-03-26T10:50:13.502Z,998.11
2023-03-26T10:51:13.228Z,998.14
2023-03-26T10:52:13.158Z,998.13
2023-03-26T10:53:13.147Z,998.13
2023-03-26T10:54:13.151Z,998.10
2023-03-26T10:55:13.144Z,998.11
2023-03-26T10:56:13.146Z,998.09
2023-03-26T10:57:13.232Z,998.09
2023-03-26T10:58:13.135Z,998.10
2023-03-26T10:59:13.134Z,998.10
2023-03-26T11:00:13.165Z,998.12
2023-03-26T11:01:13.158Z,998.05
2023-03-26T11:02:13.118Z,998.09
2023-03-26T11:03:13.141Z,998.12
2023-03-26T11:04:13.106Z,998.13
2023-03-26T11:05:13.129Z,998.13
2023-03-26T11:06:13.122Z,998.13
2023-03-26T11:07:13.121Z,998.12
2023-03-26T11:08:13.085Z,998.12
2023-03-26T11:09:13.093Z,998.15
2023-03-26T11:10:13.076Z,998.16
2023-03-26T11:11:13.089Z,998.15
2023-03-26T11:12:26.223Z,998.17
2023-03-26T11:13:13.083Z,998.14
2023-03-26T11:14:21.360Z,998.11
2023-03-26T11:15:13.062Z,998.13
2023-03-26T11:16:13.107Z,998.15
2023-03-26T11:17:14.487Z,998.09
2023-03-26T11:18:13.268Z,998.08
2023-03-26T11:19:13.054Z,998.06
2023-03-26T11:20:13.054Z,998.08
2023-03-26T11:21:19.970Z,998.07
2023-03-26T11:22:13.065Z,997.99
2023-03-26T11:23:13.068Z,997.99
2023-03-26T11:24:13.031Z,997.98
2023-03-26T11:25:13.111Z,997.99
2023-03-26T11:26:13.040Z,998.03
2023-03-26T11:27:14.607Z,998.04
2023-03-26T11:28:13.948Z,998.04
2023-03-26T11:29:31.065Z,998.02
2023-03-26T11:30:13.020Z,998.01
2023-03-26T11:31:13.026Z,997.97
2023-03-26T11:32:13.009Z,997.99
2023-03-26T11:33:13.016Z,998.01
2023-03-26T11:34:12.994Z,998.00
2023-03-26T11:35:12.988Z,997.96
2023-03-26T11:36:13.016Z,997.97
2023-03-26T11:37:12.975Z,997.95
2023-03-26T11:38:12.992Z,997.98
2023-03-26T11:39:12.991Z,998.01
2023-03-26T11:40:13.014Z,997.97
2023-03-26T11:41:12.987Z,998.01
2023-03-26T11:42:12.966Z,997.99
2023-03-26T11:43:12.954Z,997.89
2023-03-26T11:44:12.967Z,997.99
2023-03-26T11:45:12.953Z,997.97
2023-03-26T11:46:13.027Z,997.97
2023-03-26T11:47:12.964Z,997.92
2023-03-26T11:48:12.945Z,998.00
2023-03-26T11:49:12.948Z,998.03
2023-03-26T11:50:12.945Z,997.97
2023-03-26T11:51:12.942Z,997.92
2023-03-26T11:52:12.946Z,997.91
2023-03-26T11:53:12.929Z,997.87
2023-03-26T11:54:12.953Z,997.87
2023-03-26T11:55:12.948Z,997.86
2023-03-26T11:56:12.924Z,997.92
2023-03-26T11:57:12.936Z,997.85
2023-03-26T11:58:12.908Z,997.86
2023-03-26T11:59:12.892Z,997.84
2023-03-26T12:00:12.903Z,997.85
2023-03-26T12:01:12.884Z,997.89
2023-03-26T12:02:12.923Z,997.82
2023-03-26T12:03:12.915Z,997.85
2023-03-26T12:04:12.912Z,997.85
2023-03-26T12:05:12.866Z,997.83
2023-03-26T12:06:12.876Z,997.83
2023-03-26T12:07:12.860Z,997.82
2023-03-26T12:08:12.868Z,997.76
2023-03-26T12:09:12.851Z,997.73
2023-03-26T12:10:15.484Z,997.81
2023-03-26T12:11:12.872Z,997.77
2023-03-26T12:12:12.860Z,997.73
2023-03-26T12:13:12.841Z,997.69
2023-03-26T12:14:12.847Z,997.70
2023-03-26T12:15:12.849Z,997.63
2023-03-26T12:16:12.898Z,997.60
2023-03-26T12:17:12.829Z,997.61
2023-03-26T12:18:12.905Z,997.59
2023-03-26T12:19:12.824Z,997.59
2023-03-26T12:20:12.830Z,997.52
2023-03-26T12:21:12.820Z,997.49
2023-03-26T12:22:12.845Z,997.50
2023-03-26T12:23:12.817Z,997.48
2023-03-26T12:24:12.816Z,997.47
2023-03-26T12:25:12.791Z,997.45
2023-03-26T12:26:12.789Z,997.47
2023-03-26T12:27:12.801Z,997.43
2023-03-26T12:28:12.806Z,997.50